sensor_id;sensor_type;location;lat;lon;timestamp;P1;durP1;ratioP1;P2;durP2;ratioP2
43793;SDS011;29414;44.798;20.366;2022-12-10T00:00:53;17.20;;;4.93;;
43793;SDS011;29414;44.798;20.366;2022-12-10T00:04:53;16.55;;;4.70;;
43793;SDS011;29414;44.798;20.366;2022-12-10T00:08:53;12.25;;;4.53;;
43793;SDS011;29414;44.798;20.366;2022-12-10T00:12:54;15.95;;;5.57;;
43793;SDS011;29414;44.798;20.366;2022-12-10T00:16:54;19.92;;;6.18;;
43793;SDS011;29414;44.798;20.366;2022-12-10T00:20:54;23.08;;;5.45;;
43793;SDS011;29414;44.798;20.366;2022-12-10T00:24:55;11.95;;;5.35;;
43793;SDS011;29414;44.798;20.366;2022-12-10T00:28:55;14.38;;;4.75;;
43793;SDS011;29414;44.798;20.366;2022-12-10T00:32:55;20.85;;;5.15;;
43793;SDS011;29414;44.798;20.366;2022-12-10T00:36:56;16.80;;;4.97;;
43793;SDS011;29414;44.798;20.366;2022-12-10T00:40:56;13.32;;;5.80;;
43793;SDS011;29414;44.798;20.366;2022-12-10T00:44:56;16.23;;;4.43;;
43793;SDS011;29414;44.798;20.366;2022-12-10T00:48:57;15.22;;;5.60;;
43793;SDS011;29414;44.798;20.366;2022-12-10T00:52:58;10.82;;;4.38;;
43793;SDS011;29414;44.798;20.366;2022-12-10T00:56:58;18.90;;;5.80;;
43793;SDS011;29414;44.798;20.366;2022-12-10T01:05:17;14.93;;;5.25;;
43793;SDS011;29414;44.798;20.366;2022-12-10T01:09:18;16.45;;;5.32;;
43793;SDS011;29414;44.798;20.366;2022-12-10T01:13:19;18.15;;;5.55;;
43793;SDS011;29414;44.798;20.366;2022-12-10T01:17:20;12.20;;;4.00;;
43793;SDS011;29414;44.798;20.366;2022-12-10T01:21:21;12.32;;;4.53;;
43793;SDS011;29414;44.798;20.366;2022-12-10T01:25:22;11.98;;;4.50;;
43793;SDS011;29414;44.798;20.366;2022-12-10T01:29:22;11.57;;;4.00;;
43793;SDS011;29414;44.798;20.366;2022-12-10T01:33:23;14.60;;;4.25;;
43793;SDS011;29414;44.798;20.366;2022-12-10T01:37:23;10.70;;;4.28;;
43793;SDS011;29414;44.798;20.366;2022-12-10T01:41:31;9.77;;;4.00;;
43793;SDS011;29414;44.798;20.366;2022-12-10T01:45:32;13.20;;;3.85;;
43793;SDS011;29414;44.798;20.366;2022-12-10T01:49:33;9.00;;;3.80;;
43793;SDS011;29414;44.798;20.366;2022-12-10T01:53:33;7.47;;;3.60;;
43793;SDS011;29414;44.798;20.366;2022-12-10T01:57:34;13.25;;;4.15;;
43793;SDS011;29414;44.798;20.366;2022-12-10T02:01:52;8.57;;;3.90;;
43793;SDS011;29414;44.798;20.366;2022-12-10T02:05:58;12.90;;;3.83;;
43793;SDS011;29414;44.798;20.366;2022-12-10T02:10:07;7.22;;;2.80;;
43793;SDS011;29414;44.798;20.366;2022-12-10T02:14:11;8.60;;;2.53;;
43793;SDS011;29414;44.798;20.366;2022-12-10T02:18:15;7.13;;;2.10;;
43793;SDS011;29414;44.798;20.366;2022-12-10T02:22:17;15.07;;;3.13;;
43793;SDS011;29414;44.798;20.366;2022-12-10T02:26:54;12.68;;;2.92;;
43793;SDS011;29414;44.798;20.366;2022-12-10T02:34:50;12.50;;;2.47;;
43793;SDS011;29414;44.798;20.366;2022-12-10T02:38:52;6.45;;;1.88;;
43793;SDS011;29414;44.798;20.366;2022-12-10T02:42:53;6.75;;;2.22;;
43793;SDS011;29414;44.798;20.366;2022-12-10T02:46:55;5.32;;;1.63;;
43793;SDS011;29414;44.798;20.366;2022-12-10T02:50:56;7.60;;;2.17;;
43793;SDS011;29414;44.798;20.366;2022-12-10T02:54:56;7.38;;;2.33;;
43793;SDS011;29414;44.798;20.366;2022-12-10T03:07:18;8.10;;;2.13;;
43793;SDS011;29414;44.798;20.366;2022-12-10T03:11:22;5.93;;;2.03;;
43793;SDS011;29414;44.798;20.366;2022-12-10T03:15:23;5.63;;;2.22;;
43793;SDS011;29414;44.798;20.366;2022-12-10T03:19:30;10.73;;;2.13;;
43793;SDS011;29414;44.798;20.366;2022-12-10T03:23:32;7.80;;;2.13;;
43793;SDS011;29414;44.798;20.366;2022-12-10T03:27:33;4.45;;;1.88;;
43793;SDS011;29414;44.798;20.366;2022-12-10T03:31:33;7.60;;;2.15;;
43793;SDS011;29414;44.798;20.366;2022-12-10T03:35:34;5.03;;;1.30;;
43793;SDS011;29414;44.798;20.366;2022-12-10T03:39:34;6.05;;;1.58;;
43793;SDS011;29414;44.798;20.366;2022-12-10T03:43:35;6.65;;;2.17;;
43793;SDS011;29414;44.798;20.366;2022-12-10T03:47:35;7.80;;;2.08;;
43793;SDS011;29414;44.798;20.366;2022-12-10T03:51:35;7.07;;;1.85;;
43793;SDS011;29414;44.798;20.366;2022-12-10T03:55:36;6.85;;;1.55;;
43793;SDS011;29414;44.798;20.366;2022-12-10T03:59:36;4.28;;;1.63;;
43793;SDS011;29414;44.798;20.366;2022-12-10T04:03:37;7.38;;;2.00;;
43793;SDS011;29414;44.798;20.366;2022-12-10T04:07:37;4.68;;;1.65;;
43793;SDS011;29414;44.798;20.366;2022-12-10T04:11:38;7.13;;;1.83;;
43793;SDS011;29414;44.798;20.366;2022-12-10T04:15:38;6.82;;;2.08;;
43793;SDS011;29414;44.798;20.366;2022-12-10T04:19:57;6.23;;;1.40;;
43793;SDS011;29414;44.798;20.366;2022-12-10T04:23:57;4.53;;;1.40;;
43793;SDS011;29414;44.798;20.366;2022-12-10T04:28:16;7.73;;;2.90;;
43793;SDS011;29414;44.798;20.366;2022-12-10T04:32:16;10.88;;;2.08;;
43793;SDS011;29414;44.798;20.366;2022-12-10T04:36:17;7.00;;;1.93;;
43793;SDS011;29414;44.798;20.366;2022-12-10T04:40:17;7.77;;;2.03;;
43793;SDS011;29414;44.798;20.366;2022-12-10T04:44:17;6.20;;;1.63;;
43793;SDS011;29414;44.798;20.366;2022-12-10T04:48:18;8.52;;;1.95;;
43793;SDS011;29414;44.798;20.366;2022-12-10T04:52:18;5.47;;;1.23;;
43793;SDS011;29414;44.798;20.366;2022-12-10T04:56:18;6.53;;;1.40;;
43793;SDS011;29414;44.798;20.366;2022-12-10T05:00:19;5.22;;;1.90;;
43793;SDS011;29414;44.798;20.366;2022-12-10T05:04:19;5.57;;;1.47;;
43793;SDS011;29414;44.798;20.366;2022-12-10T05:08:20;5.03;;;1.25;;
43793;SDS011;29414;44.798;20.366;2022-12-10T05:12:20;4.00;;;1.13;;
43793;SDS011;29414;44.798;20.366;2022-12-10T05:16:21;5.45;;;1.52;;
43793;SDS011;29414;44.798;20.366;2022-12-10T05:20:21;7.25;;;1.23;;
43793;SDS011;29414;44.798;20.366;2022-12-10T05:24:22;6.28;;;2.13;;
43793;SDS011;29414;44.798;20.366;2022-12-10T05:28:22;4.53;;;1.52;;
43793;SDS011;29414;44.798;20.366;2022-12-10T05:32:22;6.28;;;1.45;;
43793;SDS011;29414;44.798;20.366;2022-12-10T05:36:24;4.13;;;1.17;;
43793;SDS011;29414;44.798;20.366;2022-12-10T05:40:24;13.10;;;2.45;;
43793;SDS011;29414;44.798;20.366;2022-12-10T05:44:24;5.07;;;1.60;;
43793;SDS011;29414;44.798;20.366;2022-12-10T05:48:25;9.07;;;1.65;;
43793;SDS011;29414;44.798;20.366;2022-12-10T05:52:25;7.75;;;1.42;;
43793;SDS011;29414;44.798;20.366;2022-12-10T05:56:25;14.98;;;2.92;;
43793;SDS011;29414;44.798;20.366;2022-12-10T06:00:26;4.55;;;2.15;;
43793;SDS011;29414;44.798;20.366;2022-12-10T06:04:26;8.48;;;2.10;;
43793;SDS011;29414;44.798;20.366;2022-12-10T06:08:27;5.57;;;1.85;;
43793;SDS011;29414;44.798;20.366;2022-12-10T06:12:27;4.85;;;1.88;;
43793;SDS011;29414;44.798;20.366;2022-12-10T06:16:27;7.90;;;2.05;;
43793;SDS011;29414;44.798;20.366;2022-12-10T06:20:28;9.38;;;1.90;;
43793;SDS011;29414;44.798;20.366;2022-12-10T06:24:28;9.98;;;1.74;;
43793;SDS011;29414;44.798;20.366;2022-12-10T06:28:29;7.72;;;2.33;;
43793;SDS011;29414;44.798;20.366;2022-12-10T06:32:29;10.52;;;2.33;;
43793;SDS011;29414;44.798;20.366;2022-12-10T06:36:30;10.80;;;2.40;;
43793;SDS011;29414;44.798;20.366;2022-12-10T06:40:30;5.57;;;1.63;;
43793;SDS011;29414;44.798;20.366;2022-12-10T06:44:30;7.82;;;1.58;;
43793;SDS011;29414;44.798;20.366;2022-12-10T06:48:30;7.60;;;1.75;;
43793;SDS011;29414;44.798;20.366;2022-12-10T06:52:31;11.38;;;2.47;;
43793;SDS011;29414;44.798;20.366;2022-12-10T06:56:31;6.90;;;1.77;;
43793;SDS011;29414;44.798;20.366;2022-12-10T07:00:31;8.30;;;1.83;;
43793;SDS011;29414;44.798;20.366;2022-12-10T07:04:32;15.48;;;1.90;;
43793;SDS011;29414;44.798;20.366;2022-12-10T07:08:32;4.03;;;1.95;;
43793;SDS011;29414;44.798;20.366;2022-12-10T07:12:32;6.45;;;2.17;;
43793;SDS011;29414;44.798;20.366;2022-12-10T07:16:32;7.45;;;2.72;;
43793;SDS011;29414;44.798;20.366;2022-12-10T07:20:33;12.73;;;2.92;;
43793;SDS011;29414;44.798;20.366;2022-12-10T07:24:33;9.45;;;2.78;;
43793;SDS011;29414;44.798;20.366;2022-12-10T07:28:33;10.20;;;2.75;;
43793;SDS011;29414;44.798;20.366;2022-12-10T07:32:34;6.45;;;2.85;;
43793;SDS011;29414;44.798;20.366;2022-12-10T07:36:34;7.95;;;2.95;;
43793;SDS011;29414;44.798;20.366;2022-12-10T07:40:34;6.75;;;2.33;;
43793;SDS011;29414;44.798;20.366;2022-12-10T07:44:35;6.75;;;2.63;;
43793;SDS011;29414;44.798;20.366;2022-12-10T07:48:36;9.20;;;3.35;;
43793;SDS011;29414;44.798;20.366;2022-12-10T07:52:36;9.30;;;2.95;;
43793;SDS011;29414;44.798;20.366;2022-12-10T07:56:37;9.56;;;2.66;;
43793;SDS011;29414;44.798;20.366;2022-12-10T08:00:37;12.10;;;3.60;;
43793;SDS011;29414;44.798;20.366;2022-12-10T08:04:37;11.18;;;3.35;;
43793;SDS011;29414;44.798;20.366;2022-12-10T08:08:38;11.23;;;2.83;;
43793;SDS011;29414;44.798;20.366;2022-12-10T08:12:38;8.43;;;3.53;;
43793;SDS011;29414;44.798;20.366;2022-12-10T08:16:38;10.00;;;3.47;;
43793;SDS011;29414;44.798;20.366;2022-12-10T08:20:38;7.45;;;2.90;;
43793;SDS011;29414;44.798;20.366;2022-12-10T08:24:39;9.20;;;3.12;;
43793;SDS011;29414;44.798;20.366;2022-12-10T08:28:39;11.10;;;3.65;;
43793;SDS011;29414;44.798;20.366;2022-12-10T08:32:39;8.75;;;3.60;;
43793;SDS011;29414;44.798;20.366;2022-12-10T08:36:40;7.10;;;2.97;;
43793;SDS011;29414;44.798;20.366;2022-12-10T08:40:40;9.10;;;3.00;;
43793;SDS011;29414;44.798;20.366;2022-12-10T08:44:41;7.13;;;3.10;;
43793;SDS011;29414;44.798;20.366;2022-12-10T08:48:41;5.97;;;2.10;;
43793;SDS011;29414;44.798;20.366;2022-12-10T08:52:42;9.07;;;2.88;;
43793;SDS011;29414;44.798;20.366;2022-12-10T08:56:42;5.57;;;2.35;;
43793;SDS011;29414;44.798;20.366;2022-12-10T09:00:42;7.18;;;2.70;;
43793;SDS011;29414;44.798;20.366;2022-12-10T09:04:42;16.20;;;5.30;;
43793;SDS011;29414;44.798;20.366;2022-12-10T09:08:46;10.52;;;6.43;;
43793;SDS011;29414;44.798;20.366;2022-12-10T09:12:46;15.10;;;6.43;;
43793;SDS011;29414;44.798;20.366;2022-12-10T09:16:46;15.75;;;6.30;;
43793;SDS011;29414;44.798;20.366;2022-12-10T09:20:47;12.23;;;7.15;;
43793;SDS011;29414;44.798;20.366;2022-12-10T09:24:47;17.27;;;8.73;;
43793;SDS011;29414;44.798;20.366;2022-12-10T09:28:48;13.70;;;8.60;;
43793;SDS011;29414;44.798;20.366;2022-12-10T09:32:48;13.88;;;6.93;;
43793;SDS011;29414;44.798;20.366;2022-12-10T09:36:48;14.35;;;7.10;;
43793;SDS011;29414;44.798;20.366;2022-12-10T09:53:20;13.60;;;6.07;;
43793;SDS011;29414;44.798;20.366;2022-12-10T09:57:29;11.90;;;6.00;;
43793;SDS011;29414;44.798;20.366;2022-12-10T10:01:31;17.02;;;6.40;;
43793;SDS011;29414;44.798;20.366;2022-12-10T10:05:34;15.02;;;6.55;;
43793;SDS011;29414;44.798;20.366;2022-12-10T10:09:36;19.60;;;6.55;;
43793;SDS011;29414;44.798;20.366;2022-12-10T10:13:56;9.77;;;5.68;;
43793;SDS011;29414;44.798;20.366;2022-12-10T10:17:59;11.15;;;5.57;;
43793;SDS011;29414;44.798;20.366;2022-12-10T10:22:01;21.85;;;7.40;;
43793;SDS011;29414;44.798;20.366;2022-12-10T10:26:03;13.65;;;6.45;;
43793;SDS011;29414;44.798;20.366;2022-12-10T10:30:04;13.77;;;5.25;;
43793;SDS011;29414;44.798;20.366;2022-12-10T10:34:05;9.15;;;5.75;;
43793;SDS011;29414;44.798;20.366;2022-12-10T10:38:07;14.63;;;6.07;;
43793;SDS011;29414;44.798;20.366;2022-12-10T10:42:08;12.27;;;5.35;;
43793;SDS011;29414;44.798;20.366;2022-12-10T10:46:12;12.52;;;5.05;;
43793;SDS011;29414;44.798;20.366;2022-12-10T10:50:14;11.25;;;4.57;;
43793;SDS011;29414;44.798;20.366;2022-12-10T10:54:42;15.63;;;5.60;;
43793;SDS011;29414;44.798;20.366;2022-12-10T10:59:00;13.00;;;5.63;;
43793;SDS011;29414;44.798;20.366;2022-12-10T11:03:02;12.77;;;6.00;;
43793;SDS011;29414;44.798;20.366;2022-12-10T11:07:11;18.83;;;6.50;;
43793;SDS011;29414;44.798;20.366;2022-12-10T11:11:22;10.40;;;6.28;;
43793;SDS011;29414;44.798;20.366;2022-12-10T11:19:24;19.15;;;12.43;;
43793;SDS011;29414;44.798;20.366;2022-12-10T11:23:27;15.20;;;8.77;;
43793;SDS011;29414;44.798;20.366;2022-12-10T11:31:56;16.75;;;7.22;;
43793;SDS011;29414;44.798;20.366;2022-12-10T11:48:27;11.60;;;4.04;;
43793;SDS011;29414;44.798;20.366;2022-12-10T11:52:45;11.85;;;3.88;;
43793;SDS011;29414;44.798;20.366;2022-12-10T11:56:49;8.18;;;4.05;;
43793;SDS011;29414;44.798;20.366;2022-12-10T12:13:15;12.30;;;4.45;;
43793;SDS011;29414;44.798;20.366;2022-12-10T12:17:19;11.40;;;3.92;;
43793;SDS011;29414;44.798;20.366;2022-12-10T12:21:21;11.82;;;4.50;;
43793;SDS011;29414;44.798;20.366;2022-12-10T12:25:40;9.70;;;3.90;;
43793;SDS011;29414;44.798;20.366;2022-12-10T12:30:27;9.70;;;4.18;;
43793;SDS011;29414;44.798;20.366;2022-12-10T12:34:21;8.55;;;3.53;;
43793;SDS011;29414;44.798;20.366;2022-12-10T12:38:31;9.52;;;3.60;;
43793;SDS011;29414;44.798;20.366;2022-12-10T12:42:35;13.30;;;4.05;;
43793;SDS011;29414;44.798;20.366;2022-12-10T12:46:42;7.57;;;4.03;;
43793;SDS011;29414;44.798;20.366;2022-12-10T12:50:43;7.70;;;3.53;;
43793;SDS011;29414;44.798;20.366;2022-12-10T12:54:45;9.90;;;3.90;;
43793;SDS011;29414;44.798;20.366;2022-12-10T13:11:29;12.90;;;4.20;;
43793;SDS011;29414;44.798;20.366;2022-12-10T13:15:34;11.93;;;3.67;;
43793;SDS011;29414;44.798;20.366;2022-12-10T13:19:35;9.45;;;3.65;;
43793;SDS011;29414;44.798;20.366;2022-12-10T13:23:46;7.05;;;3.58;;
43793;SDS011;29414;44.798;20.366;2022-12-10T13:27:54;10.20;;;4.32;;
43793;SDS011;29414;44.798;20.366;2022-12-10T13:31:55;8.18;;;3.00;;
43793;SDS011;29414;44.798;20.366;2022-12-10T13:35:57;8.18;;;3.35;;
43793;SDS011;29414;44.798;20.366;2022-12-10T13:44:24;7.10;;;2.90;;
43793;SDS011;29414;44.798;20.366;2022-12-10T13:48:31;12.05;;;3.70;;
43793;SDS011;29414;44.798;20.366;2022-12-10T14:09:11;9.93;;;3.40;;
43793;SDS011;29414;44.798;20.366;2022-12-10T14:13:13;11.57;;;3.95;;
43793;SDS011;29414;44.798;20.366;2022-12-10T14:17:17;13.00;;;3.67;;
43793;SDS011;29414;44.798;20.366;2022-12-10T14:21:18;13.98;;;3.92;;
43793;SDS011;29414;44.798;20.366;2022-12-10T14:25:20;7.80;;;3.85;;
43793;SDS011;29414;44.798;20.366;2022-12-10T14:29:21;10.70;;;3.70;;
43793;SDS011;29414;44.798;20.366;2022-12-10T14:33:22;11.32;;;4.18;;
43793;SDS011;29414;44.798;20.366;2022-12-10T14:37:25;13.75;;;3.97;;
43793;SDS011;29414;44.798;20.366;2022-12-10T14:41:26;17.73;;;4.20;;
43793;SDS011;29414;44.798;20.366;2022-12-10T14:45:28;10.45;;;4.03;;
43793;SDS011;29414;44.798;20.366;2022-12-10T14:49:31;13.85;;;4.28;;
43793;SDS011;29414;44.798;20.366;2022-12-10T14:53:31;13.43;;;4.82;;
43793;SDS011;29414;44.798;20.366;2022-12-10T14:57:33;14.07;;;4.45;;
43793;SDS011;29414;44.798;20.366;2022-12-10T15:01:37;17.05;;;5.13;;
43793;SDS011;29414;44.798;20.366;2022-12-10T15:05:38;12.25;;;4.45;;
43793;SDS011;29414;44.798;20.366;2022-12-10T15:09:39;11.77;;;4.57;;
43793;SDS011;29414;44.798;20.366;2022-12-10T15:13:40;16.08;;;5.45;;
43793;SDS011;29414;44.798;20.366;2022-12-10T15:17:42;10.80;;;3.88;;
43793;SDS011;29414;44.798;20.366;2022-12-10T15:21:43;17.70;;;5.03;;
43793;SDS011;29414;44.798;20.366;2022-12-10T15:25:45;14.30;;;4.80;;
43793;SDS011;29414;44.798;20.366;2022-12-10T15:29:45;18.75;;;5.05;;
43793;SDS011;29414;44.798;20.366;2022-12-10T15:33:53;16.23;;;5.25;;
43793;SDS011;29414;44.798;20.366;2022-12-10T15:37:54;12.35;;;5.18;;
43793;SDS011;29414;44.798;20.366;2022-12-10T15:42:00;22.02;;;6.10;;
43793;SDS011;29414;44.798;20.366;2022-12-10T15:46:00;13.70;;;5.03;;
43793;SDS011;29414;44.798;20.366;2022-12-10T15:50:01;16.35;;;6.38;;
43793;SDS011;29414;44.798;20.366;2022-12-10T15:54:11;20.17;;;6.43;;
43793;SDS011;29414;44.798;20.366;2022-12-10T15:58:12;21.50;;;5.50;;
43793;SDS011;29414;44.798;20.366;2022-12-10T16:06:32;15.88;;;5.50;;
43793;SDS011;29414;44.798;20.366;2022-12-10T16:10:33;11.32;;;4.80;;
43793;SDS011;29414;44.798;20.366;2022-12-10T16:14:33;18.02;;;5.25;;
43793;SDS011;29414;44.798;20.366;2022-12-10T16:18:33;21.08;;;5.53;;
43793;SDS011;29414;44.798;20.366;2022-12-10T16:22:35;20.83;;;6.05;;
43793;SDS011;29414;44.798;20.366;2022-12-10T16:26:36;19.70;;;5.48;;
43793;SDS011;29414;44.798;20.366;2022-12-10T16:30:38;12.80;;;5.18;;
43793;SDS011;29414;44.798;20.366;2022-12-10T16:34:40;20.50;;;6.03;;
43793;SDS011;29414;44.798;20.366;2022-12-10T16:38:41;15.18;;;6.32;;
43793;SDS011;29414;44.798;20.366;2022-12-10T16:42:41;14.77;;;5.07;;
43793;SDS011;29414;44.798;20.366;2022-12-10T16:46:42;20.15;;;6.63;;
43793;SDS011;29414;44.798;20.366;2022-12-10T16:50:42;15.20;;;5.28;;
43793;SDS011;29414;44.798;20.366;2022-12-10T16:54:43;11.68;;;5.20;;
43793;SDS011;29414;44.798;20.366;2022-12-10T16:58:44;15.05;;;4.85;;
43793;SDS011;29414;44.798;20.366;2022-12-10T17:02:44;24.10;;;5.70;;
43793;SDS011;29414;44.798;20.366;2022-12-10T17:06:44;20.88;;;6.07;;
43793;SDS011;29414;44.798;20.366;2022-12-10T17:10:45;17.50;;;4.88;;
43793;SDS011;29414;44.798;20.366;2022-12-10T17:15:04;17.80;;;5.82;;
43793;SDS011;29414;44.798;20.366;2022-12-10T17:19:05;13.13;;;5.10;;
43793;SDS011;29414;44.798;20.366;2022-12-10T17:23:05;15.25;;;5.88;;
43793;SDS011;29414;44.798;20.366;2022-12-10T17:27:06;15.02;;;5.34;;
43793;SDS011;29414;44.798;20.366;2022-12-10T17:31:07;17.52;;;5.72;;
43793;SDS011;29414;44.798;20.366;2022-12-10T17:35:08;13.22;;;4.58;;
43793;SDS011;29414;44.798;20.366;2022-12-10T17:39:15;19.08;;;5.38;;
43793;SDS011;29414;44.798;20.366;2022-12-10T17:43:16;17.63;;;5.60;;
43793;SDS011;29414;44.798;20.366;2022-12-10T17:47:20;11.75;;;4.85;;
43793;SDS011;29414;44.798;20.366;2022-12-10T17:51:21;10.55;;;4.72;;
43793;SDS011;29414;44.798;20.366;2022-12-10T17:55:21;13.45;;;5.43;;
43793;SDS011;29414;44.798;20.366;2022-12-10T17:59:22;14.60;;;5.53;;
43793;SDS011;29414;44.798;20.366;2022-12-10T18:03:22;11.26;;;4.96;;
43793;SDS011;29414;44.798;20.366;2022-12-10T18:07:22;9.60;;;4.85;;
43793;SDS011;29414;44.798;20.366;2022-12-10T18:11:24;11.80;;;4.57;;
43793;SDS011;29414;44.798;20.366;2022-12-10T18:15:26;18.00;;;5.63;;
43793;SDS011;29414;44.798;20.366;2022-12-10T18:19:26;12.70;;;5.47;;
43793;SDS011;29414;44.798;20.366;2022-12-10T18:23:26;14.25;;;4.93;;
43793;SDS011;29414;44.798;20.366;2022-12-10T18:27:27;13.07;;;5.05;;
43793;SDS011;29414;44.798;20.366;2022-12-10T18:31:28;14.15;;;4.95;;
43793;SDS011;29414;44.798;20.366;2022-12-10T18:35:29;14.23;;;5.40;;
43793;SDS011;29414;44.798;20.366;2022-12-10T18:39:30;17.08;;;5.30;;
43793;SDS011;29414;44.798;20.366;2022-12-10T18:43:33;15.63;;;7.05;;
43793;SDS011;29414;44.798;20.366;2022-12-10T18:47:33;16.75;;;10.00;;
43793;SDS011;29414;44.798;20.366;2022-12-10T18:51:34;19.05;;;12.32;;
43793;SDS011;29414;44.798;20.366;2022-12-10T18:55:34;23.42;;;16.00;;
43793;SDS011;29414;44.798;20.366;2022-12-10T18:59:34;19.27;;;16.98;;
43793;SDS011;29414;44.798;20.366;2022-12-10T19:03:35;36.92;;;26.35;;
43793;SDS011;29414;44.798;20.366;2022-12-10T19:07:35;36.05;;;29.00;;
43793;SDS011;29414;44.798;20.366;2022-12-10T19:11:35;39.80;;;30.17;;
43793;SDS011;29414;44.798;20.366;2022-12-10T19:15:36;37.45;;;27.98;;
43793;SDS011;29414;44.798;20.366;2022-12-10T19:19:36;32.33;;;26.30;;
43793;SDS011;29414;44.798;20.366;2022-12-10T19:23:36;42.92;;;29.48;;
43793;SDS011;29414;44.798;20.366;2022-12-10T19:27:36;29.94;;;26.58;;
43793;SDS011;29414;44.798;20.366;2022-12-10T19:31:37;35.20;;;26.87;;
43793;SDS011;29414;44.798;20.366;2022-12-10T19:35:38;45.67;;;34.27;;
43793;SDS011;29414;44.798;20.366;2022-12-10T19:39:38;38.47;;;32.20;;
43793;SDS011;29414;44.798;20.366;2022-12-10T19:43:38;42.73;;;31.87;;
43793;SDS011;29414;44.798;20.366;2022-12-10T19:47:39;38.63;;;30.67;;
43793;SDS011;29414;44.798;20.366;2022-12-10T19:51:39;33.03;;;27.90;;
43793;SDS011;29414;44.798;20.366;2022-12-10T19:55:40;39.10;;;30.60;;
43793;SDS011;29414;44.798;20.366;2022-12-10T19:59:40;38.33;;;30.43;;
43793;SDS011;29414;44.798;20.366;2022-12-10T20:03:41;32.47;;;26.77;;
43793;SDS011;29414;44.798;20.366;2022-12-10T20:07:41;37.00;;;28.33;;
43793;SDS011;29414;44.798;20.366;2022-12-10T20:11:41;38.30;;;28.37;;
43793;SDS011;29414;44.798;20.366;2022-12-10T20:15:42;38.23;;;26.30;;
43793;SDS011;29414;44.798;20.366;2022-12-10T20:19:45;37.40;;;30.92;;
43793;SDS011;29414;44.798;20.366;2022-12-10T20:23:45;37.53;;;27.73;;
43793;SDS011;29414;44.798;20.366;2022-12-10T20:27:45;43.27;;;30.97;;
43793;SDS011;29414;44.798;20.366;2022-12-10T20:31:46;38.75;;;29.70;;
43793;SDS011;29414;44.798;20.366;2022-12-10T20:35:47;33.33;;;26.50;;
43793;SDS011;29414;44.798;20.366;2022-12-10T20:39:47;36.17;;;27.10;;
43793;SDS011;29414;44.798;20.366;2022-12-10T20:43:47;33.35;;;27.00;;
43793;SDS011;29414;44.798;20.366;2022-12-10T20:47:48;35.77;;;27.53;;
43793;SDS011;29414;44.798;20.366;2022-12-10T20:51:48;40.70;;;26.97;;
43793;SDS011;29414;44.798;20.366;2022-12-10T20:55:49;30.63;;;22.77;;
43793;SDS011;29414;44.798;20.366;2022-12-10T20:59:49;34.50;;;25.03;;
43793;SDS011;29414;44.798;20.366;2022-12-10T21:03:49;32.00;;;24.10;;
43793;SDS011;29414;44.798;20.366;2022-12-10T21:07:50;25.90;;;22.03;;
43793;SDS011;29414;44.798;20.366;2022-12-10T21:11:50;28.13;;;22.10;;
43793;SDS011;29414;44.798;20.366;2022-12-10T21:15:51;26.23;;;22.50;;
43793;SDS011;29414;44.798;20.366;2022-12-10T21:19:51;28.33;;;22.80;;
43793;SDS011;29414;44.798;20.366;2022-12-10T21:23:52;26.90;;;20.67;;
43793;SDS011;29414;44.798;20.366;2022-12-10T21:27:52;21.37;;;18.17;;
43793;SDS011;29414;44.798;20.366;2022-12-10T21:31:53;20.97;;;16.50;;
43793;SDS011;29414;44.798;20.366;2022-12-10T21:35:53;16.67;;;14.03;;
43793;SDS011;29414;44.798;20.366;2022-12-10T21:39:54;16.20;;;13.60;;
43793;SDS011;29414;44.798;20.366;2022-12-10T21:43:56;14.77;;;11.30;;
43793;SDS011;29414;44.798;20.366;2022-12-10T21:47:57;11.87;;;10.70;;
43793;SDS011;29414;44.798;20.366;2022-12-10T21:51:58;11.30;;;9.10;;
43793;SDS011;29414;44.798;20.366;2022-12-10T21:56:04;10.23;;;9.07;;
43793;SDS011;29414;44.798;20.366;2022-12-10T22:00:04;9.02;;;8.23;;
43793;SDS011;29414;44.798;20.366;2022-12-10T22:04:08;5.50;;;5.00;;
43793;SDS011;29414;44.798;20.366;2022-12-10T22:08:08;4.57;;;4.17;;
43793;SDS011;29414;44.798;20.366;2022-12-10T22:12:08;4.63;;;4.23;;
43793;SDS011;29414;44.798;20.366;2022-12-10T22:16:09;4.17;;;3.07;;
43793;SDS011;29414;44.798;20.366;2022-12-10T22:20:09;2.13;;;1.87;;
43793;SDS011;29414;44.798;20.366;2022-12-10T22:24:09;2.20;;;2.00;;
43793;SDS011;29414;44.798;20.366;2022-12-10T22:28:10;1.80;;;1.47;;
43793;SDS011;29414;44.798;20.366;2022-12-10T22:32:10;3.93;;;2.10;;
43793;SDS011;29414;44.798;20.366;2022-12-10T22:36:10;3.10;;;2.13;;
43793;SDS011;29414;44.798;20.366;2022-12-10T22:40:11;1.93;;;1.30;;
43793;SDS011;29414;44.798;20.366;2022-12-10T22:44:11;2.17;;;1.83;;
43793;SDS011;29414;44.798;20.366;2022-12-10T22:48:12;1.57;;;1.43;;
43793;SDS011;29414;44.798;20.366;2022-12-10T22:52:12;2.90;;;1.87;;
43793;SDS011;29414;44.798;20.366;2022-12-10T22:56:13;2.60;;;1.83;;
43793;SDS011;29414;44.798;20.366;2022-12-10T23:00:13;2.63;;;2.10;;
43793;SDS011;29414;44.798;20.366;2022-12-10T23:04:15;3.73;;;2.23;;
43793;SDS011;29414;44.798;20.366;2022-12-10T23:08:16;2.13;;;1.73;;
43793;SDS011;29414;44.798;20.366;2022-12-10T23:12:16;2.27;;;1.70;;
43793;SDS011;29414;44.798;20.366;2022-12-10T23:16:35;2.10;;;1.30;;
43793;SDS011;29414;44.798;20.366;2022-12-10T23:20:35;3.77;;;2.30;;
43793;SDS011;29414;44.798;20.366;2022-12-10T23:24:35;2.13;;;1.37;;
43793;SDS011;29414;44.798;20.366;2022-12-10T23:28:36;2.17;;;1.83;;
43793;SDS011;29414;44.798;20.366;2022-12-10T23:32:36;4.57;;;2.30;;
43793;SDS011;29414;44.798;20.366;2022-12-10T23:36:36;3.73;;;1.90;;
43793;SDS011;29414;44.798;20.366;2022-12-10T23:40:41;1.07;;;0.97;;
43793;SDS011;29414;44.798;20.366;2022-12-10T23:44:41;2.50;;;2.00;;
43793;SDS011;29414;44.798;20.366;2022-12-10T23:48:42;3.53;;;2.10;;
43793;SDS011;29414;44.798;20.366;2022-12-10T23:52:43;4.33;;;1.80;;
43793;SDS011;29414;44.798;20.366;2022-12-10T23:56:43;1.27;;;1.13;;
